sensor_id;sensor_type;location;lat;lon;timestamp;temperature;humidity
75819;DHT22;64453;51.944;9.796;2023-04-10T00:02:10;9.00;49.40
75819;DHT22;64453;51.944;9.796;2023-04-10T00:04:38;9.00;49.70
75819;DHT22;64453;51.944;9.796;2023-04-10T00:07:04;9.10;49.80
75819;DHT22;64453;51.944;9.796;2023-04-10T00:09:31;9.30;48.90
75819;DHT22;64453;51.944;9.796;2023-04-10T00:11:58;9.30;48.90
75819;DHT22;64453;51.944;9.796;2023-04-10T00:14:25;9.20;49.00
75819;DHT22;64453;51.944;9.796;2023-04-10T00:16:52;9.20;49.60
75819;DHT22;64453;51.944;9.796;2023-04-10T00:19:20;8.90;49.80
75819;DHT22;64453;51.944;9.796;2023-04-10T00:21:48;9.20;49.60
75819;DHT22;64453;51.944;9.796;2023-04-10T00:24:15;9.30;49.40
75819;DHT22;64453;51.944;9.796;2023-04-10T00:26:41;9.40;49.30
75819;DHT22;64453;51.944;9.796;2023-04-10T00:29:08;9.50;49.00
75819;DHT22;64453;51.944;9.796;2023-04-10T00:31:35;9.50;49.00
75819;DHT22;64453;51.944;9.796;2023-04-10T00:34:02;9.60;48.10
75819;DHT22;64453;51.944;9.796;2023-04-10T00:36:30;9.30;48.40
75819;DHT22;64453;51.944;9.796;2023-04-10T00:38:57;9.20;48.90
75819;DHT22;64453;51.944;9.796;2023-04-10T00:41:24;9.30;48.20
75819;DHT22;64453;51.944;9.796;2023-04-10T00:43:54;9.40;48.00
75819;DHT22;64453;51.944;9.796;2023-04-10T00:46:22;9.40;48.10
75819;DHT22;64453;51.944;9.796;2023-04-10T00:48:49;9.00;48.80
75819;DHT22;64453;51.944;9.796;2023-04-10T00:51:17;8.90;49.00
75819;DHT22;64453;51.944;9.796;2023-04-10T00:53:46;9.00;48.80
75819;DHT22;64453;51.944;9.796;2023-04-10T00:56:15;9.00;48.70
75819;DHT22;64453;51.944;9.796;2023-04-10T00:58:43;9.00;48.90
75819;DHT22;64453;51.944;9.796;2023-04-10T01:01:10;8.70;49.40
75819;DHT22;64453;51.944;9.796;2023-04-10T01:03:38;8.80;49.40
75819;DHT22;64453;51.944;9.796;2023-04-10T01:06:13;8.50;50.30
75819;DHT22;64453;51.944;9.796;2023-04-10T01:09:02;8.30;50.80
75819;DHT22;64453;51.944;9.796;2023-04-10T01:11:41;8.30;51.20
75819;DHT22;64453;51.944;9.796;2023-04-10T01:14:18;8.20;50.70
75819;DHT22;64453;51.944;9.796;2023-04-10T01:16:53;8.50;50.00
75819;DHT22;64453;51.944;9.796;2023-04-10T01:19:30;8.70;49.60
75819;DHT22;64453;51.944;9.796;2023-04-10T01:22:05;8.60;49.90
75819;DHT22;64453;51.944;9.796;2023-04-10T01:24:47;8.70;49.40
75819;DHT22;64453;51.944;9.796;2023-04-10T01:27:29;8.70;49.60
75819;DHT22;64453;51.944;9.796;2023-04-10T01:30:05;8.80;49.50
75819;DHT22;64453;51.944;9.796;2023-04-10T01:32:35;8.90;48.70
75819;DHT22;64453;51.944;9.796;2023-04-10T01:35:05;8.90;48.80
75819;DHT22;64453;51.944;9.796;2023-04-10T01:37:37;8.70;49.60
75819;DHT22;64453;51.944;9.796;2023-04-10T01:40:08;8.80;49.40
75819;DHT22;64453;51.944;9.796;2023-04-10T01:42:40;8.90;49.20
75819;DHT22;64453;51.944;9.796;2023-04-10T01:45:17;8.70;49.10
75819;DHT22;64453;51.944;9.796;2023-04-10T01:47:46;8.90;48.50
75819;DHT22;64453;51.944;9.796;2023-04-10T01:50:14;8.50;48.80
75819;DHT22;64453;51.944;9.796;2023-04-10T01:52:43;8.70;48.70
75819;DHT22;64453;51.944;9.796;2023-04-10T01:55:11;8.40;49.50
75819;DHT22;64453;51.944;9.796;2023-04-10T01:57:38;8.30;49.80
75819;DHT22;64453;51.944;9.796;2023-04-10T02:00:06;8.30;49.30
75819;DHT22;64453;51.944;9.796;2023-04-10T02:02:35;8.10;50.30
75819;DHT22;64453;51.944;9.796;2023-04-10T02:05:02;7.90;50.40
75819;DHT22;64453;51.944;9.796;2023-04-10T02:07:35;7.90;50.50
75819;DHT22;64453;51.944;9.796;2023-04-10T02:10:10;7.90;50.30
75819;DHT22;64453;51.944;9.796;2023-04-10T02:12:45;8.20;50.10
75819;DHT22;64453;51.944;9.796;2023-04-10T02:15:13;8.40;49.70
75819;DHT22;64453;51.944;9.796;2023-04-10T02:17:44;8.20;49.40
75819;DHT22;64453;51.944;9.796;2023-04-10T02:20:11;8.20;50.10
75819;DHT22;64453;51.944;9.796;2023-04-10T02:22:39;7.90;50.50
75819;DHT22;64453;51.944;9.796;2023-04-10T02:25:09;8.20;49.80
75819;DHT22;64453;51.944;9.796;2023-04-10T02:27:36;8.40;49.40
75819;DHT22;64453;51.944;9.796;2023-04-10T02:30:05;8.50;49.20
75819;DHT22;64453;51.944;9.796;2023-04-10T02:32:33;8.10;50.00
75819;DHT22;64453;51.944;9.796;2023-04-10T02:35:01;7.90;50.80
75819;DHT22;64453;51.944;9.796;2023-04-10T02:37:28;7.80;50.80
75819;DHT22;64453;51.944;9.796;2023-04-10T02:39:55;8.10;50.40
75819;DHT22;64453;51.944;9.796;2023-04-10T02:42:22;8.20;49.80
75819;DHT22;64453;51.944;9.796;2023-04-10T02:44:49;8.20;49.80
75819;DHT22;64453;51.944;9.796;2023-04-10T02:47:16;8.00;49.90
75819;DHT22;64453;51.944;9.796;2023-04-10T02:49:43;8.10;50.20
75819;DHT22;64453;51.944;9.796;2023-04-10T02:52:11;8.00;50.40
75819;DHT22;64453;51.944;9.796;2023-04-10T02:54:38;8.20;50.10
75819;DHT22;64453;51.944;9.796;2023-04-10T02:57:05;8.30;49.80
75819;DHT22;64453;51.944;9.796;2023-04-10T02:59:32;8.40;49.40
75819;DHT22;64453;51.944;9.796;2023-04-10T03:01:58;8.20;49.40
75819;DHT22;64453;51.944;9.796;2023-04-10T03:04:25;8.20;49.20
75819;DHT22;64453;51.944;9.796;2023-04-10T03:06:53;8.30;49.10
75819;DHT22;64453;51.944;9.796;2023-04-10T03:09:21;8.40;49.10
75819;DHT22;64453;51.944;9.796;2023-04-10T03:11:48;8.30;49.50
75819;DHT22;64453;51.944;9.796;2023-04-10T03:14:15;8.10;49.50
75819;DHT22;64453;51.944;9.796;2023-04-10T03:16:42;8.20;49.10
75819;DHT22;64453;51.944;9.796;2023-04-10T03:19:09;8.00;49.70
75819;DHT22;64453;51.944;9.796;2023-04-10T03:21:37;8.00;49.60
75819;DHT22;64453;51.944;9.796;2023-04-10T03:24:04;7.90;50.10
75819;DHT22;64453;51.944;9.796;2023-04-10T03:26:33;8.10;49.60
75819;DHT22;64453;51.944;9.796;2023-04-10T03:28:59;7.90;50.00
75819;DHT22;64453;51.944;9.796;2023-04-10T03:31:26;8.00;49.90
75819;DHT22;64453;51.944;9.796;2023-04-10T03:33:53;8.10;49.70
75819;DHT22;64453;51.944;9.796;2023-04-10T03:36:20;7.80;50.60
75819;DHT22;64453;51.944;9.796;2023-04-10T03:38:47;7.80;50.60
75819;DHT22;64453;51.944;9.796;2023-04-10T03:41:14;8.00;50.30
75819;DHT22;64453;51.944;9.796;2023-04-10T03:43:42;8.10;50.10
75819;DHT22;64453;51.944;9.796;2023-04-10T03:46:09;8.10;49.70
75819;DHT22;64453;51.944;9.796;2023-04-10T03:48:36;8.20;49.50
75819;DHT22;64453;51.944;9.796;2023-04-10T03:51:03;8.00;49.80
75819;DHT22;64453;51.944;9.796;2023-04-10T03:53:30;7.90;50.00
75819;DHT22;64453;51.944;9.796;2023-04-10T03:56:00;8.10;50.00
75819;DHT22;64453;51.944;9.796;2023-04-10T03:58:27;8.00;50.30
75819;DHT22;64453;51.944;9.796;2023-04-10T04:00:55;8.10;49.70
75819;DHT22;64453;51.944;9.796;2023-04-10T04:03:22;8.20;49.80
75819;DHT22;64453;51.944;9.796;2023-04-10T04:05:49;8.20;50.00
75819;DHT22;64453;51.944;9.796;2023-04-10T04:08:16;8.10;50.20
75819;DHT22;64453;51.944;9.796;2023-04-10T04:10:43;8.10;50.20
75819;DHT22;64453;51.944;9.796;2023-04-10T04:13:10;8.10;50.00
75819;DHT22;64453;51.944;9.796;2023-04-10T04:15:37;7.80;50.30
75819;DHT22;64453;51.944;9.796;2023-04-10T04:18:05;7.90;50.20
75819;DHT22;64453;51.944;9.796;2023-04-10T04:20:32;7.80;50.50
75819;DHT22;64453;51.944;9.796;2023-04-10T04:22:59;7.70;50.70
75819;DHT22;64453;51.944;9.796;2023-04-10T04:25:26;7.70;50.50
75819;DHT22;64453;51.944;9.796;2023-04-10T04:27:52;7.70;50.50
75819;DHT22;64453;51.944;9.796;2023-04-10T04:30:20;7.90;50.20
75819;DHT22;64453;51.944;9.796;2023-04-10T04:32:47;7.90;50.20
75819;DHT22;64453;51.944;9.796;2023-04-10T04:35:16;7.90;50.40
75819;DHT22;64453;51.944;9.796;2023-04-10T04:37:43;7.80;51.00
75819;DHT22;64453;51.944;9.796;2023-04-10T04:40:10;7.50;51.20
75819;DHT22;64453;51.944;9.796;2023-04-10T04:42:37;7.50;51.40
75819;DHT22;64453;51.944;9.796;2023-04-10T04:45:06;7.70;50.90
75819;DHT22;64453;51.944;9.796;2023-04-10T04:47:33;7.80;50.90
75819;DHT22;64453;51.944;9.796;2023-04-10T04:50:00;7.70;50.70
75819;DHT22;64453;51.944;9.796;2023-04-10T04:52:29;7.70;50.80
75819;DHT22;64453;51.944;9.796;2023-04-10T04:54:56;7.50;51.20
75819;DHT22;64453;51.944;9.796;2023-04-10T04:57:23;7.40;51.60
75819;DHT22;64453;51.944;9.796;2023-04-10T04:59:50;7.70;51.30
75819;DHT22;64453;51.944;9.796;2023-04-10T05:02:17;7.80;50.80
75819;DHT22;64453;51.944;9.796;2023-04-10T05:04:46;7.90;50.80
75819;DHT22;64453;51.944;9.796;2023-04-10T05:07:13;7.70;51.20
75819;DHT22;64453;51.944;9.796;2023-04-10T05:09:41;7.90;51.20
75819;DHT22;64453;51.944;9.796;2023-04-10T05:12:08;7.90;51.10
75819;DHT22;64453;51.944;9.796;2023-04-10T05:14:35;8.00;51.00
75819;DHT22;64453;51.944;9.796;2023-04-10T05:17:02;7.80;51.50
75819;DHT22;64453;51.944;9.796;2023-04-10T05:19:29;7.80;51.70
75819;DHT22;64453;51.944;9.796;2023-04-10T05:21:56;7.50;52.40
75819;DHT22;64453;51.944;9.796;2023-04-10T05:24:23;7.40;53.30
75819;DHT22;64453;51.944;9.796;2023-04-10T05:26:51;7.10;54.40
75819;DHT22;64453;51.944;9.796;2023-04-10T05:29:18;7.10;54.80
75819;DHT22;64453;51.944;9.796;2023-04-10T05:31:45;7.60;53.90
75819;DHT22;64453;51.944;9.796;2023-04-10T05:34:12;7.80;53.70
75819;DHT22;64453;51.944;9.796;2023-04-10T05:36:39;7.90;53.40
75819;DHT22;64453;51.944;9.796;2023-04-10T05:39:06;8.00;53.20
75819;DHT22;64453;51.944;9.796;2023-04-10T05:41:33;8.00;53.30
75819;DHT22;64453;51.944;9.796;2023-04-10T05:44:01;7.90;53.30
75819;DHT22;64453;51.944;9.796;2023-04-10T05:46:28;8.10;53.40
75819;DHT22;64453;51.944;9.796;2023-04-10T05:48:55;8.10;53.60
75819;DHT22;64453;51.944;9.796;2023-04-10T05:51:23;8.00;54.30
75819;DHT22;64453;51.944;9.796;2023-04-10T05:53:50;8.20;54.10
75819;DHT22;64453;51.944;9.796;2023-04-10T05:56:17;7.90;54.80
75819;DHT22;64453;51.944;9.796;2023-04-10T05:58:45;7.40;57.20
75819;DHT22;64453;51.944;9.796;2023-04-10T06:01:13;7.40;57.60
75819;DHT22;64453;51.944;9.796;2023-04-10T06:03:40;7.60;58.20
75819;DHT22;64453;51.944;9.796;2023-04-10T06:06:07;7.40;59.00
75819;DHT22;64453;51.944;9.796;2023-04-10T06:08:34;7.70;59.10
75819;DHT22;64453;51.944;9.796;2023-04-10T06:11:01;7.80;59.10
75819;DHT22;64453;51.944;9.796;2023-04-10T06:13:28;8.10;59.00
75819;DHT22;64453;51.944;9.796;2023-04-10T06:15:55;8.30;58.90
75819;DHT22;64453;51.944;9.796;2023-04-10T06:18:23;8.40;58.90
75819;DHT22;64453;51.944;9.796;2023-04-10T06:20:50;8.50;58.60
75819;DHT22;64453;51.944;9.796;2023-04-10T06:23:17;8.60;58.40
75819;DHT22;64453;51.944;9.796;2023-04-10T06:25:44;8.60;58.40
75819;DHT22;64453;51.944;9.796;2023-04-10T06:28:11;8.70;58.40
75819;DHT22;64453;51.944;9.796;2023-04-10T06:30:39;8.70;58.70
75819;DHT22;64453;51.944;9.796;2023-04-10T06:33:06;8.70;58.70
75819;DHT22;64453;51.944;9.796;2023-04-10T06:35:34;8.80;58.90
75819;DHT22;64453;51.944;9.796;2023-04-10T06:38:02;8.80;59.70
75819;DHT22;64453;51.944;9.796;2023-04-10T06:40:29;8.90;59.10
75819;DHT22;64453;51.944;9.796;2023-04-10T06:42:58;9.00;58.90
75819;DHT22;64453;51.944;9.796;2023-04-10T06:45:25;9.10;58.70
75819;DHT22;64453;51.944;9.796;2023-04-10T06:47:52;9.20;58.80
75819;DHT22;64453;51.944;9.796;2023-04-10T06:50:19;9.20;58.90
75819;DHT22;64453;51.944;9.796;2023-04-10T06:52:48;9.30;58.80
75819;DHT22;64453;51.944;9.796;2023-04-10T06:55:15;9.40;59.00
75819;DHT22;64453;51.944;9.796;2023-04-10T06:57:42;9.40;58.80
75819;DHT22;64453;51.944;9.796;2023-04-10T07:00:10;9.60;59.10
75819;DHT22;64453;51.944;9.796;2023-04-10T07:02:38;9.60;59.20
75819;DHT22;64453;51.944;9.796;2023-04-10T07:05:05;9.60;59.20
75819;DHT22;64453;51.944;9.796;2023-04-10T07:07:32;9.70;59.10
75819;DHT22;64453;51.944;9.796;2023-04-10T07:10:01;9.80;59.40
75819;DHT22;64453;51.944;9.796;2023-04-10T07:12:28;9.90;59.40
75819;DHT22;64453;51.944;9.796;2023-04-10T07:14:55;10.00;58.20
75819;DHT22;64453;51.944;9.796;2023-04-10T07:17:22;10.00;58.60
75819;DHT22;64453;51.944;9.796;2023-04-10T07:19:49;10.10;58.60
75819;DHT22;64453;51.944;9.796;2023-04-10T07:22:16;10.10;58.50
75819;DHT22;64453;51.944;9.796;2023-04-10T07:24:43;10.10;57.60
75819;DHT22;64453;51.944;9.796;2023-04-10T07:27:12;10.20;57.60
75819;DHT22;64453;51.944;9.796;2023-04-10T07:29:38;10.20;56.40
75819;DHT22;64453;51.944;9.796;2023-04-10T07:32:05;10.30;57.30
75819;DHT22;64453;51.944;9.796;2023-04-10T07:34:32;10.20;56.00
75819;DHT22;64453;51.944;9.796;2023-04-10T07:36:59;10.10;55.40
75819;DHT22;64453;51.944;9.796;2023-04-10T07:39:26;10.30;55.10
75819;DHT22;64453;51.944;9.796;2023-04-10T07:41:53;10.40;55.70
75819;DHT22;64453;51.944;9.796;2023-04-10T07:44:21;10.50;55.20
75819;DHT22;64453;51.944;9.796;2023-04-10T07:46:49;10.50;54.60
75819;DHT22;64453;51.944;9.796;2023-04-10T07:49:16;10.60;54.60
75819;DHT22;64453;51.944;9.796;2023-04-10T07:51:43;10.60;54.10
75819;DHT22;64453;51.944;9.796;2023-04-10T07:54:10;10.70;54.20
75819;DHT22;64453;51.944;9.796;2023-04-10T07:56:37;10.60;53.80
75819;DHT22;64453;51.944;9.796;2023-04-10T07:59:04;10.70;53.80
75819;DHT22;64453;51.944;9.796;2023-04-10T08:01:33;10.80;55.00
75819;DHT22;64453;51.944;9.796;2023-04-10T08:04:00;10.80;54.10
75819;DHT22;64453;51.944;9.796;2023-04-10T08:06:27;10.90;53.50
75819;DHT22;64453;51.944;9.796;2023-04-10T08:08:54;11.00;53.80
75819;DHT22;64453;51.944;9.796;2023-04-10T08:11:23;11.00;53.70
75819;DHT22;64453;51.944;9.796;2023-04-10T08:13:52;11.10;53.70
75819;DHT22;64453;51.944;9.796;2023-04-10T08:16:22;11.20;53.80
75819;DHT22;64453;51.944;9.796;2023-04-10T08:18:52;11.10;53.20
75819;DHT22;64453;51.944;9.796;2023-04-10T08:21:20;11.20;53.20
75819;DHT22;64453;51.944;9.796;2023-04-10T08:23:49;11.20;53.00
75819;DHT22;64453;51.944;9.796;2023-04-10T08:26:16;11.30;52.80
75819;DHT22;64453;51.944;9.796;2023-04-10T08:28:45;11.40;52.50
75819;DHT22;64453;51.944;9.796;2023-04-10T08:31:13;11.50;52.70
75819;DHT22;64453;51.944;9.796;2023-04-10T08:33:40;11.50;52.10
75819;DHT22;64453;51.944;9.796;2023-04-10T08:36:09;11.50;52.20
75819;DHT22;64453;51.944;9.796;2023-04-10T08:38:37;11.60;53.60
75819;DHT22;64453;51.944;9.796;2023-04-10T08:41:04;11.70;52.70
75819;DHT22;64453;51.944;9.796;2023-04-10T08:43:32;11.60;51.00
75819;DHT22;64453;51.944;9.796;2023-04-10T08:46:00;11.60;51.30
75819;DHT22;64453;51.944;9.796;2023-04-10T08:48:33;11.80;52.10
75819;DHT22;64453;51.944;9.796;2023-04-10T08:51:04;11.90;52.10
75819;DHT22;64453;51.944;9.796;2023-04-10T08:53:38;12.00;52.20
75819;DHT22;64453;51.944;9.796;2023-04-10T08:56:07;12.00;51.90
75819;DHT22;64453;51.944;9.796;2023-04-10T08:58:38;12.00;51.80
75819;DHT22;64453;51.944;9.796;2023-04-10T09:01:06;12.00;51.30
75819;DHT22;64453;51.944;9.796;2023-04-10T09:03:35;12.00;51.60
75819;DHT22;64453;51.944;9.796;2023-04-10T09:06:04;12.10;52.00
75819;DHT22;64453;51.944;9.796;2023-04-10T09:08:33;12.10;51.20
75819;DHT22;64453;51.944;9.796;2023-04-10T09:11:01;12.20;51.50
75819;DHT22;64453;51.944;9.796;2023-04-10T09:13:35;12.20;51.30
75819;DHT22;64453;51.944;9.796;2023-04-10T09:16:03;12.30;51.20
75819;DHT22;64453;51.944;9.796;2023-04-10T09:18:45;12.40;51.00
75819;DHT22;64453;51.944;9.796;2023-04-10T09:21:15;12.40;51.50
75819;DHT22;64453;51.944;9.796;2023-04-10T09:23:46;12.50;51.30
75819;DHT22;64453;51.944;9.796;2023-04-10T09:26:24;12.50;51.70
75819;DHT22;64453;51.944;9.796;2023-04-10T09:28:57;12.60;51.00
75819;DHT22;64453;51.944;9.796;2023-04-10T09:31:30;12.60;50.20
75819;DHT22;64453;51.944;9.796;2023-04-10T09:34:07;12.70;50.40
75819;DHT22;64453;51.944;9.796;2023-04-10T09:36:36;12.70;49.50
75819;DHT22;64453;51.944;9.796;2023-04-10T09:39:05;12.70;49.60
75819;DHT22;64453;51.944;9.796;2023-04-10T09:41:33;12.80;49.90
75819;DHT22;64453;51.944;9.796;2023-04-10T09:44:08;12.90;48.60
75819;DHT22;64453;51.944;9.796;2023-04-10T09:46:37;12.90;48.10
75819;DHT22;64453;51.944;9.796;2023-04-10T09:49:04;12.80;48.60
75819;DHT22;64453;51.944;9.796;2023-04-10T09:51:33;13.00;50.30
75819;DHT22;64453;51.944;9.796;2023-04-10T09:54:02;13.20;49.60
75819;DHT22;64453;51.944;9.796;2023-04-10T09:56:32;13.10;50.00
75819;DHT22;64453;51.944;9.796;2023-04-10T09:59:06;13.10;49.20
75819;DHT22;64453;51.944;9.796;2023-04-10T10:01:33;13.60;49.70
75819;DHT22;64453;51.944;9.796;2023-04-10T10:04:02;14.20;48.70
75819;DHT22;64453;51.944;9.796;2023-04-10T10:06:29;14.60;46.40
75819;DHT22;64453;51.944;9.796;2023-04-10T10:09:02;14.80;46.90
75819;DHT22;64453;51.944;9.796;2023-04-10T10:11:33;14.90;46.00
75819;DHT22;64453;51.944;9.796;2023-04-10T10:14:02;15.20;46.30
75819;DHT22;64453;51.944;9.796;2023-04-10T10:16:33;15.20;45.60
75819;DHT22;64453;51.944;9.796;2023-04-10T10:19:08;15.20;44.70
75819;DHT22;64453;51.944;9.796;2023-04-10T10:21:37;15.30;43.80
75819;DHT22;64453;51.944;9.796;2023-04-10T10:24:07;15.30;41.80
75819;DHT22;64453;51.944;9.796;2023-04-10T10:26:38;15.50;42.90
75819;DHT22;64453;51.944;9.796;2023-04-10T10:29:07;15.60;44.20
75819;DHT22;64453;51.944;9.796;2023-04-10T10:31:35;15.60;44.20
75819;DHT22;64453;51.944;9.796;2023-04-10T10:34:03;15.70;43.90
75819;DHT22;64453;51.944;9.796;2023-04-10T10:36:32;15.80;44.30
75819;DHT22;64453;51.944;9.796;2023-04-10T10:39:20;15.70;45.30
75819;DHT22;64453;51.944;9.796;2023-04-10T10:41:59;15.70;41.60
75819;DHT22;64453;51.944;9.796;2023-04-10T10:44:41;15.90;41.90
75819;DHT22;64453;51.944;9.796;2023-04-10T10:47:13;15.90;41.20
75819;DHT22;64453;51.944;9.796;2023-04-10T10:49:55;15.80;41.00
75819;DHT22;64453;51.944;9.796;2023-04-10T10:52:43;15.80;40.60
75819;DHT22;64453;51.944;9.796;2023-04-10T10:55:31;16.00;41.20
75819;DHT22;64453;51.944;9.796;2023-04-10T10:58:08;16.00;40.50
75819;DHT22;64453;51.944;9.796;2023-04-10T11:01:04;16.00;39.90
75819;DHT22;64453;51.944;9.796;2023-04-10T11:03:33;16.00;40.20
75819;DHT22;64453;51.944;9.796;2023-04-10T11:06:01;16.10;41.30
75819;DHT22;64453;51.944;9.796;2023-04-10T11:08:42;16.10;40.90
75819;DHT22;64453;51.944;9.796;2023-04-10T11:11:13;16.10;40.40
75819;DHT22;64453;51.944;9.796;2023-04-10T11:14:11;16.20;40.40
75819;DHT22;64453;51.944;9.796;2023-04-10T11:16:46;16.20;40.10
75819;DHT22;64453;51.944;9.796;2023-04-10T11:19:13;16.30;39.20
75819;DHT22;64453;51.944;9.796;2023-04-10T11:22:01;16.40;39.40
75819;DHT22;64453;51.944;9.796;2023-04-10T11:24:55;16.60;40.40
75819;DHT22;64453;51.944;9.796;2023-04-10T11:27:40;16.60;39.20
75819;DHT22;64453;51.944;9.796;2023-04-10T11:30:31;16.80;39.40
75819;DHT22;64453;51.944;9.796;2023-04-10T11:33:00;16.70;39.80
75819;DHT22;64453;51.944;9.796;2023-04-10T11:35:29;16.70;39.40
75819;DHT22;64453;51.944;9.796;2023-04-10T11:38:14;16.70;40.00
75819;DHT22;64453;51.944;9.796;2023-04-10T11:40:56;16.80;40.10
75819;DHT22;64453;51.944;9.796;2023-04-10T11:43:25;16.90;39.10
75819;DHT22;64453;51.944;9.796;2023-04-10T11:46:01;16.80;39.80
75819;DHT22;64453;51.944;9.796;2023-04-10T11:48:29;16.90;39.80
75819;DHT22;64453;51.944;9.796;2023-04-10T11:50:57;17.00;38.60
75819;DHT22;64453;51.944;9.796;2023-04-10T11:53:26;17.10;39.70
75819;DHT22;64453;51.944;9.796;2023-04-10T11:55:54;17.20;39.50
75819;DHT22;64453;51.944;9.796;2023-04-10T11:58:26;17.10;39.30
75819;DHT22;64453;51.944;9.796;2023-04-10T12:00:59;17.40;39.10
75819;DHT22;64453;51.944;9.796;2023-04-10T12:03:36;17.50;38.90
75819;DHT22;64453;51.944;9.796;2023-04-10T12:06:07;17.60;38.80
75819;DHT22;64453;51.944;9.796;2023-04-10T12:08:37;17.40;38.20
75819;DHT22;64453;51.944;9.796;2023-04-10T12:11:06;17.50;38.30
75819;DHT22;64453;51.944;9.796;2023-04-10T12:13:34;17.60;37.70
75819;DHT22;64453;51.944;9.796;2023-04-10T12:16:05;17.60;37.80
75819;DHT22;64453;51.944;9.796;2023-04-10T12:18:34;17.60;38.50
75819;DHT22;64453;51.944;9.796;2023-04-10T12:21:01;17.50;37.20
75819;DHT22;64453;51.944;9.796;2023-04-10T12:23:29;17.70;38.90
75819;DHT22;64453;51.944;9.796;2023-04-10T12:26:08;17.80;38.80
75819;DHT22;64453;51.944;9.796;2023-04-10T12:28:38;17.70;37.80
75819;DHT22;64453;51.944;9.796;2023-04-10T12:31:07;17.90;37.90
75819;DHT22;64453;51.944;9.796;2023-04-10T12:33:34;18.00;38.10
75819;DHT22;64453;51.944;9.796;2023-04-10T12:36:01;18.00;37.40
75819;DHT22;64453;51.944;9.796;2023-04-10T12:38:39;18.10;36.80
75819;DHT22;64453;51.944;9.796;2023-04-10T12:41:08;18.20;36.60
75819;DHT22;64453;51.944;9.796;2023-04-10T12:43:37;18.30;36.10
75819;DHT22;64453;51.944;9.796;2023-04-10T12:46:07;18.20;35.50
75819;DHT22;64453;51.944;9.796;2023-04-10T12:48:35;18.40;35.10
75819;DHT22;64453;51.944;9.796;2023-04-10T12:51:02;18.30;35.10
75819;DHT22;64453;51.944;9.796;2023-04-10T12:53:29;18.30;35.30
75819;DHT22;64453;51.944;9.796;2023-04-10T12:55:59;18.30;34.90
75819;DHT22;64453;51.944;9.796;2023-04-10T12:58:28;18.40;34.70
75819;DHT22;64453;51.944;9.796;2023-04-10T13:00:57;18.50;35.90
75819;DHT22;64453;51.944;9.796;2023-04-10T13:03:29;18.60;36.60
75819;DHT22;64453;51.944;9.796;2023-04-10T13:05:56;18.50;35.40
75819;DHT22;64453;51.944;9.796;2023-04-10T13:08:23;18.60;35.60
75819;DHT22;64453;51.944;9.796;2023-04-10T13:10:50;18.50;35.90
75819;DHT22;64453;51.944;9.796;2023-04-10T13:13:17;18.60;35.70
75819;DHT22;64453;51.944;9.796;2023-04-10T13:15:44;18.70;35.80
75819;DHT22;64453;51.944;9.796;2023-04-10T13:18:11;18.40;34.20
75819;DHT22;64453;51.944;9.796;2023-04-10T13:20:40;18.70;35.20
75819;DHT22;64453;51.944;9.796;2023-04-10T13:23:07;18.80;35.30
75819;DHT22;64453;51.944;9.796;2023-04-10T13:25:36;18.60;34.70
75819;DHT22;64453;51.944;9.796;2023-04-10T13:28:05;18.70;35.20
75819;DHT22;64453;51.944;9.796;2023-04-10T13:30:36;18.70;35.00
75819;DHT22;64453;51.944;9.796;2023-04-10T13:33:04;18.70;33.90
75819;DHT22;64453;51.944;9.796;2023-04-10T13:35:31;18.80;33.30
75819;DHT22;64453;51.944;9.796;2023-04-10T13:37:59;18.80;33.00
75819;DHT22;64453;51.944;9.796;2023-04-10T13:40:27;18.90;33.40
75819;DHT22;64453;51.944;9.796;2023-04-10T13:42:54;19.00;33.60
75819;DHT22;64453;51.944;9.796;2023-04-10T13:45:21;19.00;33.50
75819;DHT22;64453;51.944;9.796;2023-04-10T13:47:48;18.90;33.40
75819;DHT22;64453;51.944;9.796;2023-04-10T13:50:15;19.00;33.60
75819;DHT22;64453;51.944;9.796;2023-04-10T13:52:41;18.80;32.60
75819;DHT22;64453;51.944;9.796;2023-04-10T13:55:10;18.80;32.80
75819;DHT22;64453;51.944;9.796;2023-04-10T13:57:37;18.80;32.80
75819;DHT22;64453;51.944;9.796;2023-04-10T14:00:05;18.80;32.90
75819;DHT22;64453;51.944;9.796;2023-04-10T14:02:33;19.00;33.50
75819;DHT22;64453;51.944;9.796;2023-04-10T14:05:00;19.10;33.90
75819;DHT22;64453;51.944;9.796;2023-04-10T14:07:27;19.30;33.70
75819;DHT22;64453;51.944;9.796;2023-04-10T14:09:54;19.40;33.30
75819;DHT22;64453;51.944;9.796;2023-04-10T14:12:23;19.40;33.10
75819;DHT22;64453;51.944;9.796;2023-04-10T14:14:50;19.30;32.20
75819;DHT22;64453;51.944;9.796;2023-04-10T14:17:17;19.40;32.90
75819;DHT22;64453;51.944;9.796;2023-04-10T14:19:44;19.20;32.40
75819;DHT22;64453;51.944;9.796;2023-04-10T14:22:13;19.20;32.70
75819;DHT22;64453;51.944;9.796;2023-04-10T14:24:40;19.30;33.20
75819;DHT22;64453;51.944;9.796;2023-04-10T14:27:06;19.70;34.10
75819;DHT22;64453;51.944;9.796;2023-04-10T14:29:35;19.80;33.70
75819;DHT22;64453;51.944;9.796;2023-04-10T14:32:02;19.70;33.00
75819;DHT22;64453;51.944;9.796;2023-04-10T14:34:29;19.80;32.60
75819;DHT22;64453;51.944;9.796;2023-04-10T14:36:56;19.70;33.00
75819;DHT22;64453;51.944;9.796;2023-04-10T14:39:23;20.00;33.00
75819;DHT22;64453;51.944;9.796;2023-04-10T14:41:50;19.90;32.30
75819;DHT22;64453;51.944;9.796;2023-04-10T14:44:17;19.80;32.80
75819;DHT22;64453;51.944;9.796;2023-04-10T14:46:46;20.10;33.30
75819;DHT22;64453;51.944;9.796;2023-04-10T14:49:13;20.10;33.10
75819;DHT22;64453;51.944;9.796;2023-04-10T14:51:43;20.30;33.40
75819;DHT22;64453;51.944;9.796;2023-04-10T14:54:11;20.20;32.30
75819;DHT22;64453;51.944;9.796;2023-04-10T14:56:38;20.20;32.60
75819;DHT22;64453;51.944;9.796;2023-04-10T14:59:05;20.20;32.90
75819;DHT22;64453;51.944;9.796;2023-04-10T15:01:33;20.20;33.10
75819;DHT22;64453;51.944;9.796;2023-04-10T15:04:02;20.20;32.90
75819;DHT22;64453;51.944;9.796;2023-04-10T15:06:29;20.20;33.00
75819;DHT22;64453;51.944;9.796;2023-04-10T15:08:57;20.20;33.00
75819;DHT22;64453;51.944;9.796;2023-04-10T15:11:24;20.20;32.60
75819;DHT22;64453;51.944;9.796;2023-04-10T15:13:51;20.30;32.80
75819;DHT22;64453;51.944;9.796;2023-04-10T15:16:18;20.30;33.20
75819;DHT22;64453;51.944;9.796;2023-04-10T15:18:46;20.30;32.50
75819;DHT22;64453;51.944;9.796;2023-04-10T15:21:14;20.50;33.10
75819;DHT22;64453;51.944;9.796;2023-04-10T15:23:41;20.50;32.30
75819;DHT22;64453;51.944;9.796;2023-04-10T15:26:10;20.60;32.90
75819;DHT22;64453;51.944;9.796;2023-04-10T15:28:38;20.60;32.70
75819;DHT22;64453;51.944;9.796;2023-04-10T15:31:06;20.60;32.10
75819;DHT22;64453;51.944;9.796;2023-04-10T15:33:33;20.70;32.80
75819;DHT22;64453;51.944;9.796;2023-04-10T15:36:01;20.80;32.80
75819;DHT22;64453;51.944;9.796;2023-04-10T15:38:31;20.90;32.60
75819;DHT22;64453;51.944;9.796;2023-04-10T15:40:59;21.20;33.20
75819;DHT22;64453;51.944;9.796;2023-04-10T15:43:26;21.40;33.00
75819;DHT22;64453;51.944;9.796;2023-04-10T15:45:53;21.40;32.50
75819;DHT22;64453;51.944;9.796;2023-04-10T15:48:19;21.50;32.30
75819;DHT22;64453;51.944;9.796;2023-04-10T15:50:48;21.40;32.80